createdAt,value
2019-05-01T00:01:04.889Z,16.48
2019-05-01T00:04:09.151Z,17.02
2019-05-01T00:06:41.760Z,19.05
2019-05-01T00:09:11.984Z,14.10
2019-05-01T00:11:41.118Z,17.40
2019-05-01T00:14:10.153Z,15.13
2019-05-01T00:16:39.221Z,15.35
2019-05-01T00:19:08.239Z,14.35
2019-05-01T00:21:37.619Z,16.45
2019-05-01T00:24:06.715Z,12.82
2019-05-01T00:26:35.741Z,14.30
2019-05-01T00:29:04.800Z,17.65
2019-05-01T00:31:33.812Z,14.80
2019-05-01T00:34:02.830Z,17.05
2019-05-01T00:36:31.789Z,14.45
2019-05-01T00:39:00.733Z,15.78
2019-05-01T00:41:29.779Z,15.40
2019-05-01T00:43:58.766Z,15.15
2019-05-01T00:46:27.769Z,15.15
2019-05-01T00:48:56.799Z,13.65
2019-05-01T00:51:25.847Z,14.40
2019-05-01T00:53:54.867Z,15.60
2019-05-01T00:56:45.934Z,14.65
2019-05-01T00:59:39.013Z,14.85
2019-05-01T01:02:29.116Z,15.50
2019-05-01T01:04:58.226Z,14.53
2019-05-01T01:07:27.287Z,15.30
2019-05-01T01:09:56.279Z,14.38
2019-05-01T01:12:25.317Z,13.80
2019-05-01T01:14:54.390Z,14.68
2019-05-01T01:17:23.608Z,15.00
2019-05-01T01:19:52.567Z,15.43
2019-05-01T01:22:21.579Z,13.88
2019-05-01T01:24:50.648Z,13.65
2019-05-01T01:27:19.676Z,14.50
2019-05-01T01:29:48.758Z,15.83
2019-05-01T01:32:17.791Z,13.43
2019-05-01T01:34:46.841Z,16.37
2019-05-01T01:37:15.885Z,14.47
2019-05-01T01:39:44.953Z,14.55
2019-05-01T01:42:14.027Z,14.23
2019-05-01T01:45:08.159Z,13.43
2019-05-01T01:47:56.655Z,15.00
2019-05-01T01:50:25.912Z,13.45
2019-05-01T01:52:55.101Z,13.90
2019-05-01T01:55:24.251Z,13.10
2019-05-01T01:57:53.691Z,13.95
2019-05-01T02:00:25.043Z,15.13
2019-05-01T02:28:58.228Z,14.87
2019-05-01T02:31:35.927Z,16.20
2019-05-01T02:34:05.081Z,18.92
2019-05-01T02:36:36.098Z,16.48
2019-05-01T02:39:08.811Z,19.02
2019-05-01T02:41:41.897Z,18.12
2019-05-01T02:44:15.940Z,15.72
2019-05-01T02:46:47.958Z,17.82
2019-05-01T02:49:27.550Z,16.57
2019-05-01T02:51:57.988Z,17.23
2019-05-01T02:54:28.329Z,17.12
2019-05-01T02:57:07.329Z,16.80
2019-05-01T02:59:38.048Z,17.35
2019-05-01T03:02:07.602Z,15.28
2019-05-01T03:04:36.748Z,17.15
2019-05-01T03:07:06.486Z,15.32
2019-05-01T03:09:36.429Z,15.10
2019-05-01T03:12:06.383Z,15.85
2019-05-01T03:14:38.871Z,14.87
2019-05-01T03:17:28.071Z,15.10
2019-05-01T03:20:03.606Z,16.42
2019-05-01T03:22:51.283Z,14.28
2019-05-01T03:25:20.807Z,15.60
2019-05-01T03:27:49.946Z,16.00
2019-05-01T03:30:19.687Z,17.05
2019-05-01T03:32:48.798Z,16.12
2019-05-01T03:35:17.819Z,15.53
2019-05-01T03:37:46.855Z,16.75
2019-05-01T03:40:16.219Z,18.30
2019-05-01T03:42:45.416Z,20.90
2019-05-01T03:45:14.482Z,18.80
2019-05-01T03:47:43.517Z,18.92
2019-05-01T03:50:12.538Z,19.57
2019-05-01T03:52:42.666Z,19.15
2019-05-01T03:55:11.685Z,19.70
2019-05-01T03:57:40.757Z,19.12
2019-05-01T04:00:12.122Z,19.10
2019-05-01T04:02:49.624Z,17.85
2019-05-01T04:05:18.673Z,20.00
2019-05-01T04:07:48.302Z,19.82
2019-05-01T04:10:17.655Z,17.42
2019-05-01T04:12:47.009Z,18.70
2019-05-01T04:15:16.231Z,18.62
2019-05-01T04:17:50.344Z,18.05
2019-05-01T04:20:19.899Z,17.20
2019-05-01T04:22:49.178Z,18.90
2019-05-01T04:25:18.575Z,19.40
2019-05-01T04:27:49.690Z,18.92
2019-05-01T04:30:40.790Z,19.62
2019-05-01T04:33:12.340Z,18.42
2019-05-01T04:35:51.274Z,20.82
2019-05-01T04:38:20.504Z,17.77
2019-05-01T04:40:50.056Z,17.48
2019-05-01T04:43:19.436Z,19.30
2019-05-01T04:45:49.242Z,20.23
2019-05-01T04:48:18.558Z,18.48
2019-05-01T04:50:48.431Z,19.35
2019-05-01T04:53:18.254Z,17.57
2019-05-01T04:55:47.893Z,19.12
2019-05-01T04:58:17.050Z,20.23
2019-05-01T05:00:46.101Z,19.62
2019-05-01T05:03:19.343Z,20.68
2019-05-01T05:05:48.806Z,21.37
2019-05-01T05:08:18.167Z,21.95
2019-05-01T05:10:48.801Z,25.17
2019-05-01T05:13:22.787Z,24.23
2019-05-01T05:16:00.796Z,27.60
2019-05-01T05:18:30.595Z,24.50
2019-05-01T05:21:00.330Z,22.87
2019-05-01T05:23:30.077Z,25.23
2019-05-01T05:25:59.118Z,21.75
2019-05-01T05:28:31.280Z,23.35
2019-05-01T05:31:02.378Z,23.45
2019-05-01T05:33:34.761Z,24.25
2019-05-01T05:36:06.597Z,24.80
2019-05-01T05:38:58.994Z,26.05
2019-05-01T05:41:29.202Z,25.75
2019-05-01T05:43:58.545Z,22.32
2019-05-01T05:46:28.003Z,27.35
2019-05-01T05:48:57.244Z,24.35
2019-05-01T05:51:40.432Z,27.87
2019-05-01T05:54:33.547Z,25.08
2019-05-01T05:57:13.847Z,23.90
2019-05-01T05:59:48.498Z,24.15
2019-05-01T06:02:48.406Z,25.10
2019-05-01T06:05:30.923Z,23.90
2019-05-01T06:08:30.474Z,26.23
2019-05-01T06:11:22.338Z,23.22
2019-05-01T06:14:19.006Z,22.90
2019-05-01T06:17:08.860Z,28.05
2019-05-01T06:19:45.925Z,24.43
2019-05-01T06:22:45.150Z,25.17
2019-05-01T06:25:22.616Z,24.77
2019-05-01T06:27:51.131Z,27.00
2019-05-01T06:30:20.263Z,23.80
2019-05-01T06:32:49.309Z,25.10
2019-05-01T06:35:18.931Z,25.75
2019-05-01T06:38:07.046Z,25.17
2019-05-01T06:40:44.939Z,24.60
2019-05-01T06:43:38.929Z,25.88
2019-05-01T06:46:27.238Z,22.75
2019-05-01T06:49:09.302Z,24.75
2019-05-01T06:51:53.386Z,23.73
2019-05-01T06:54:22.717Z,23.40
2019-05-01T06:56:52.603Z,23.65
2019-05-01T06:59:26.196Z,25.40
2019-05-01T07:01:58.343Z,25.30
2019-05-01T07:04:24.660Z,25.92
2019-05-01T07:06:53.829Z,25.20
2019-05-01T07:09:28.161Z,24.52
2019-05-01T07:11:55.381Z,25.32
2019-05-01T07:14:25.313Z,23.70
2019-05-01T07:16:54.547Z,27.73
2019-05-01T07:19:42.663Z,26.62
2019-05-01T07:22:11.699Z,30.17
2019-05-01T07:24:41.376Z,31.42
2019-05-01T07:27:10.514Z,29.20
2019-05-01T07:29:44.850Z,28.98
2019-05-01T07:32:14.841Z,31.95
2019-05-01T07:34:42.847Z,29.42
2019-05-01T07:37:11.898Z,26.02
2019-05-01T07:39:44.810Z,30.25
2019-05-01T07:42:29.222Z,30.05
2019-05-01T07:45:08.358Z,27.73
2019-05-01T07:47:40.375Z,30.88
2019-05-01T07:50:12.651Z,33.23
2019-05-01T07:52:42.277Z,31.75
2019-05-01T07:55:13.000Z,31.65
2019-05-01T07:57:44.496Z,34.43
2019-05-01T08:00:26.222Z,34.73
2019-05-01T08:02:55.295Z,30.43
2019-05-01T08:05:24.391Z,27.67
2019-05-01T08:07:53.508Z,30.82
2019-05-01T08:10:25.869Z,32.70
2019-05-01T08:12:55.404Z,33.83
2019-05-01T08:15:27.637Z,30.65
2019-05-01T08:17:56.905Z,33.02
2019-05-01T08:20:35.554Z,31.68
2019-05-01T08:23:07.602Z,32.45
2019-05-01T08:25:35.341Z,32.38
2019-05-01T08:28:19.651Z,30.82
2019-05-01T08:31:10.701Z,33.63
2019-05-01T08:34:01.863Z,28.87
2019-05-01T08:36:30.896Z,28.87
2019-05-01T08:38:59.940Z,28.38
2019-05-01T08:41:31.904Z,26.97
2019-05-01T08:43:59.882Z,28.38
2019-05-01T08:46:46.945Z,30.15
2019-05-01T08:49:23.259Z,31.20
2019-05-01T08:51:52.601Z,29.35
2019-05-01T08:54:21.815Z,30.23
2019-05-01T08:56:52.997Z,26.52
2019-05-01T08:59:23.955Z,30.00
2019-05-01T09:02:08.557Z,33.55
2019-05-01T09:04:25.402Z,29.65
2019-05-01T09:06:54.207Z,31.70
2019-05-01T09:09:23.254Z,29.50
2019-05-01T09:11:54.614Z,26.42
2019-05-01T09:14:22.927Z,28.50
2019-05-01T09:16:52.550Z,29.77
2019-05-01T09:19:21.939Z,28.12
2019-05-01T09:21:50.997Z,26.37
2019-05-01T09:24:23.260Z,24.65
2019-05-01T09:27:12.525Z,25.75
2019-05-01T09:29:46.905Z,25.08
2019-05-01T09:32:18.646Z,25.02
2019-05-01T09:34:46.661Z,23.32
2019-05-01T09:37:16.885Z,21.80
2019-05-01T09:39:47.451Z,22.48
2019-05-01T09:42:18.210Z,22.58
2019-05-01T09:44:47.640Z,22.90
2019-05-01T09:47:17.026Z,20.55
2019-05-01T09:49:48.690Z,21.00
2019-05-01T09:52:41.568Z,20.70
2019-05-01T09:55:22.922Z,19.15
2019-05-01T09:57:48.994Z,17.48
2019-05-01T10:00:25.865Z,17.37
2019-05-01T10:02:54.915Z,16.45
2019-05-01T10:05:28.954Z,17.05
2019-05-01T10:07:54.808Z,17.00
2019-05-01T10:10:24.844Z,19.90
2019-05-01T10:12:54.641Z,18.20
2019-05-01T10:15:23.702Z,18.42
2019-05-01T10:17:52.830Z,18.05
2019-05-01T10:20:21.822Z,15.75
2019-05-01T10:22:51.140Z,13.75
2019-05-01T10:25:20.180Z,16.27
2019-05-01T10:27:55.617Z,17.05
2019-05-01T10:30:46.826Z,15.32
2019-05-01T10:33:19.842Z,14.33
2019-05-01T10:36:06.602Z,15.10
2019-05-01T10:38:35.645Z,14.07
2019-05-01T10:41:09.213Z,14.40
2019-05-01T10:43:35.848Z,15.38
2019-05-01T10:46:05.036Z,14.98
2019-05-01T10:48:34.110Z,13.30
2019-05-01T10:51:03.215Z,13.35
2019-05-01T10:53:32.216Z,12.58
2019-05-01T10:56:01.250Z,12.18
2019-05-01T10:58:30.289Z,11.80
2019-05-01T11:01:06.028Z,12.50
2019-05-01T11:03:35.002Z,12.53
2019-05-01T11:06:04.119Z,13.88
2019-05-01T11:08:33.150Z,12.82
2019-05-01T11:11:02.178Z,11.63
2019-05-01T11:13:31.352Z,11.08
2019-05-01T11:16:00.469Z,11.30
2019-05-01T11:18:29.896Z,11.38
2019-05-01T11:20:59.167Z,10.93
2019-05-01T11:23:28.266Z,9.68
2019-05-01T11:25:57.439Z,10.75
2019-05-01T11:28:26.638Z,9.35
2019-05-01T11:30:55.762Z,10.25
2019-05-01T11:33:59.123Z,10.82
2019-05-01T11:36:43.679Z,10.32
2019-05-01T11:39:43.976Z,10.03
2019-05-01T11:42:14.623Z,8.38
2019-05-01T11:44:43.802Z,8.93
2019-05-01T11:47:12.944Z,8.85
2019-05-01T11:49:42.023Z,9.70
2019-05-01T11:52:11.239Z,9.98
2019-05-01T11:54:40.397Z,8.83
2019-05-01T11:57:09.523Z,8.88
2019-05-01T11:59:38.569Z,9.40
2019-05-01T12:02:07.784Z,9.80
2019-05-01T12:04:36.825Z,9.88
2019-05-01T12:07:06.062Z,9.80
2019-05-01T12:09:35.167Z,8.93
2019-05-01T12:12:07.900Z,9.70
2019-05-01T12:14:36.945Z,8.70
2019-05-01T12:17:21.049Z,9.35
2019-05-01T12:19:52.976Z,10.20
2019-05-01T12:22:22.130Z,10.13
2019-05-01T12:24:51.195Z,8.35
2019-05-01T12:27:22.277Z,9.60
2019-05-01T12:29:51.325Z,8.78
2019-05-01T12:32:20.356Z,10.13
2019-05-01T12:34:49.643Z,8.83
2019-05-01T12:37:28.171Z,9.30
2019-05-01T12:39:57.161Z,9.95
2019-05-01T12:42:27.014Z,9.60
2019-05-01T12:44:56.108Z,9.60
2019-05-01T12:47:34.540Z,10.40
2019-05-01T12:50:03.871Z,11.63
2019-05-01T12:53:01.113Z,11.35
2019-05-01T12:55:57.925Z,10.25
2019-05-01T12:58:27.027Z,10.45
2019-05-01T13:00:56.430Z,9.78
2019-05-01T13:03:25.667Z,9.88
2019-05-01T13:05:54.792Z,9.45
2019-05-01T13:08:23.864Z,8.43
2019-05-01T13:10:52.990Z,8.85
2019-05-01T13:13:22.066Z,9.38
2019-05-01T13:15:51.186Z,8.63
2019-05-01T13:18:20.420Z,8.85
2019-05-01T13:20:49.659Z,8.05
2019-05-01T13:23:18.671Z,9.03
2019-05-01T13:25:49.068Z,8.95
2019-05-01T13:28:42.780Z,9.43
2019-05-01T13:31:23.667Z,9.83
2019-05-01T13:33:52.720Z,8.73
2019-05-01T13:36:21.855Z,9.28
2019-05-01T13:38:51.026Z,10.78
2019-05-01T13:41:20.577Z,9.68
2019-05-01T13:43:49.626Z,9.48
2019-05-01T13:46:18.702Z,9.45
2019-05-01T13:48:47.855Z,10.05
2019-05-01T13:51:17.013Z,9.73
2019-05-01T13:53:46.166Z,10.68
2019-05-01T13:56:15.527Z,10.68
2019-05-01T13:58:44.579Z,9.88
2019-05-01T14:01:14.295Z,9.78
2019-05-01T14:03:43.592Z,9.50
2019-05-01T14:06:12.688Z,9.43
2019-05-01T14:08:41.721Z,10.00
2019-05-01T14:11:10.792Z,9.90
2019-05-01T14:13:39.758Z,10.15
2019-05-01T14:16:08.835Z,9.13
2019-05-01T14:18:37.833Z,9.05
2019-05-01T14:21:32.049Z,9.43
2019-05-01T14:24:10.960Z,10.25
2019-05-01T14:26:40.021Z,10.28
2019-05-01T14:29:09.088Z,11.22
2019-05-01T14:31:38.096Z,10.50
2019-05-01T14:34:07.132Z,11.12
2019-05-01T14:36:36.258Z,9.40
2019-05-01T14:39:07.181Z,10.40
2019-05-01T14:41:36.279Z,10.38
2019-05-01T14:44:06.273Z,10.78
2019-05-01T14:46:35.473Z,10.72
2019-05-01T14:49:04.526Z,10.38
2019-05-01T14:51:33.548Z,9.55
2019-05-01T14:54:02.494Z,9.88
2019-05-01T14:56:31.582Z,9.75
2019-05-01T14:59:00.590Z,9.05
2019-05-01T15:01:29.642Z,10.85
2019-05-01T15:03:58.617Z,9.58
2019-05-01T15:06:27.671Z,9.63
2019-05-01T15:08:56.715Z,10.50
2019-05-01T15:11:25.762Z,10.60
2019-05-01T15:14:25.651Z,9.15
2019-05-01T15:17:19.665Z,9.28
2019-05-01T15:19:53.779Z,10.15
2019-05-01T15:22:22.878Z,9.20
2019-05-01T15:24:51.900Z,9.93
2019-05-01T15:27:20.921Z,9.30
2019-05-01T15:29:49.933Z,9.08
2019-05-01T15:32:18.958Z,8.25
2019-05-01T15:34:47.965Z,8.88
2019-05-01T15:37:17.070Z,8.53
2019-05-01T15:39:52.912Z,8.15
2019-05-01T15:42:39.279Z,8.68
2019-05-01T15:45:08.725Z,7.33
2019-05-01T15:47:37.684Z,7.62
2019-05-01T15:50:07.215Z,9.23
2019-05-01T15:52:36.328Z,9.15
2019-05-01T15:55:06.805Z,9.55
2019-05-01T15:57:36.394Z,8.43
2019-05-01T16:00:08.069Z,7.17
2019-05-01T16:02:37.105Z,8.28
2019-05-01T16:05:06.516Z,7.78
2019-05-01T16:07:35.536Z,7.55
2019-05-01T16:10:07.550Z,7.25
2019-05-01T16:12:41.877Z,6.95
2019-05-01T16:15:17.644Z,7.87
2019-05-01T16:17:46.705Z,7.12
2019-05-01T16:20:17.026Z,6.97
2019-05-01T16:22:46.442Z,6.10
2019-05-01T16:25:15.583Z,5.72
2019-05-01T16:27:44.535Z,6.60
2019-05-01T16:30:15.539Z,5.87
2019-05-01T16:32:44.596Z,5.95
2019-05-01T16:35:13.632Z,5.78
2019-05-01T16:37:42.697Z,5.70
2019-05-01T16:40:30.260Z,6.75
2019-05-01T16:42:59.388Z,6.58
2019-05-01T16:45:29.015Z,6.37
2019-05-01T16:47:58.107Z,6.72
2019-05-01T16:50:27.168Z,6.28
2019-05-01T16:52:56.315Z,6.83
2019-05-01T16:55:25.578Z,6.78
2019-05-01T16:57:54.858Z,6.67
2019-05-01T17:00:54.193Z,6.45
2019-05-01T17:03:26.707Z,7.22
2019-05-01T17:06:29.653Z,6.95
2019-05-01T17:09:08.445Z,8.23
2019-05-01T17:11:37.520Z,7.58
2019-05-01T17:14:08.547Z,7.15
2019-05-01T17:16:37.659Z,6.87
2019-05-01T17:19:07.503Z,8.05
2019-05-01T17:21:36.557Z,6.55
2019-05-01T17:24:05.954Z,8.33
2019-05-01T17:26:34.987Z,7.62
2019-05-01T17:29:04.206Z,8.70
2019-05-01T17:31:33.688Z,7.28
2019-05-01T17:34:02.870Z,7.20
2019-05-01T17:36:31.919Z,7.17
2019-05-01T17:39:00.968Z,6.10
2019-05-01T17:41:30.026Z,6.15
2019-05-01T17:43:59.093Z,5.20
2019-05-01T17:46:28.168Z,5.85
2019-05-01T17:48:57.361Z,7.35
2019-05-01T17:51:26.348Z,6.80
2019-05-01T17:53:55.334Z,6.22
2019-05-01T17:56:28.302Z,6.62
2019-05-01T17:58:55.390Z,6.40
2019-05-01T18:01:43.532Z,6.72
2019-05-01T18:04:20.500Z,6.83
2019-05-01T18:06:50.632Z,7.83
2019-05-01T18:09:19.871Z,8.38
2019-05-01T18:11:52.145Z,7.95
2019-05-01T18:14:19.837Z,9.00
2019-05-01T18:16:51.442Z,8.70
2019-05-01T18:19:24.448Z,10.38
2019-05-01T18:22:00.541Z,9.65
2019-05-01T18:24:45.821Z,9.60
2019-05-01T18:27:32.596Z,9.75
2019-05-01T18:30:05.718Z,9.28
2019-05-01T18:32:47.552Z,9.45
2019-05-01T18:35:16.066Z,10.28
2019-05-01T18:37:56.957Z,9.35
2019-05-01T18:40:33.915Z,9.38
2019-05-01T18:43:03.331Z,10.45
2019-05-01T18:45:48.888Z,8.88
2019-05-01T18:48:19.050Z,10.00
2019-05-01T18:50:49.434Z,9.85
2019-05-01T18:53:19.656Z,8.95
2019-05-01T18:55:48.760Z,9.90
2019-05-01T18:58:18.012Z,9.08
2019-05-01T19:00:47.158Z,8.25
2019-05-01T19:03:16.220Z,9.40
2019-05-01T19:05:46.889Z,8.10
2019-05-01T19:08:16.131Z,8.65
2019-05-01T19:10:45.175Z,10.15
2019-05-01T19:13:14.598Z,8.53
2019-05-01T19:15:43.647Z,10.25
2019-05-01T19:18:12.765Z,9.90
2019-05-01T19:20:41.840Z,8.70
2019-05-01T19:23:11.277Z,9.50
2019-05-01T19:25:40.460Z,8.88
2019-05-01T19:28:13.332Z,9.25
2019-05-01T19:30:42.834Z,10.90
2019-05-01T19:33:15.742Z,10.23
2019-05-01T19:35:45.867Z,13.25
2019-05-01T19:38:17.227Z,13.20
2019-05-01T19:40:46.507Z,12.55
2019-05-01T19:43:15.677Z,13.30
2019-05-01T19:45:44.878Z,14.68
2019-05-01T19:50:34.978Z,13.53
2019-05-01T19:51:07.342Z,14.90
2019-05-01T19:53:36.585Z,13.70
2019-05-01T19:56:44.475Z,13.28
2019-05-01T19:59:15.499Z,13.62
2019-05-01T20:02:30.170Z,13.15
2019-05-01T20:05:35.855Z,13.75
2019-05-01T20:08:57.359Z,12.78
2019-05-01T20:11:29.264Z,14.33
2019-05-01T20:13:58.381Z,13.98
2019-05-01T20:16:28.516Z,13.83
2019-05-01T20:18:57.725Z,14.05
2019-05-01T20:21:26.898Z,14.47
2019-05-01T20:23:56.094Z,17.20
2019-05-01T20:26:26.950Z,13.22
2019-05-01T20:28:57.486Z,14.05
2019-05-01T20:31:28.218Z,14.43
2019-05-01T20:33:57.527Z,14.68
2019-05-01T20:36:26.415Z,15.08
2019-05-01T20:38:55.392Z,13.93
2019-05-01T20:41:24.626Z,13.35
2019-05-01T20:43:53.614Z,13.45
2019-05-01T20:46:25.911Z,14.78
2019-05-01T20:48:56.032Z,17.40
2019-05-01T20:51:27.179Z,16.60
2019-05-01T20:53:56.287Z,14.83
2019-05-01T20:56:30.642Z,13.03
2019-05-01T20:59:03.197Z,14.10
2019-05-01T21:01:30.971Z,16.37
2019-05-01T21:04:17.655Z,15.00
2019-05-01T21:06:53.476Z,13.50
2019-05-01T21:09:28.736Z,13.10
2019-05-01T21:12:05.422Z,12.55
2019-05-01T21:14:36.923Z,12.37
2019-05-01T21:17:09.656Z,12.95
2019-05-01T21:19:37.764Z,15.38
2019-05-01T21:22:07.324Z,15.60
2019-05-01T21:24:36.223Z,14.23
2019-05-01T21:27:05.339Z,14.35
2019-05-01T21:29:34.411Z,13.65
2019-05-01T21:32:03.623Z,14.63
2019-05-01T21:34:33.409Z,13.55
2019-05-01T21:37:02.776Z,13.83
2019-05-01T21:39:33.469Z,14.80
2019-05-01T21:42:06.571Z,14.58
2019-05-01T21:44:33.352Z,14.35
2019-05-01T21:47:03.971Z,14.65
2019-05-01T21:49:33.335Z,14.30
2019-05-01T21:52:03.584Z,14.58
2019-05-01T21:54:33.370Z,16.10
2019-05-01T21:57:02.615Z,15.32
2019-05-01T21:59:31.654Z,14.60
2019-05-01T22:02:00.708Z,14.43
2019-05-01T22:04:31.992Z,16.05
2019-05-01T22:07:00.561Z,14.60
2019-05-01T22:09:30.516Z,14.20
2019-05-01T22:11:59.617Z,15.13
2019-05-01T22:14:53.907Z,15.38
2019-05-01T22:17:32.076Z,14.53
2019-05-01T22:20:01.464Z,15.48
2019-05-01T22:22:45.956Z,14.87
2019-05-01T22:25:20.052Z,13.93
2019-05-01T22:27:53.628Z,13.62
2019-05-01T22:30:46.166Z,13.95
2019-05-01T22:33:16.206Z,14.07
2019-05-01T22:35:50.963Z,14.23
2019-05-01T22:38:21.658Z,14.35
2019-05-01T22:41:06.566Z,14.20
2019-05-01T22:44:47.763Z,14.28
2019-05-01T22:47:39.574Z,14.03
2019-05-01T22:50:14.980Z,13.90
2019-05-01T22:52:44.021Z,14.30
2019-05-01T22:55:15.473Z,14.58
2019-05-01T22:57:44.529Z,14.50
2019-05-01T23:00:29.739Z,15.38
2019-05-01T23:03:05.598Z,14.43
2019-05-01T23:05:31.930Z,14.18
2019-05-01T23:08:00.910Z,15.55
2019-05-01T23:10:30.317Z,15.93
2019-05-01T23:12:59.357Z,15.25
2019-05-01T23:15:30.102Z,14.78
2019-05-01T23:17:59.143Z,15.00
2019-05-01T23:20:28.214Z,16.17
2019-05-01T23:22:57.294Z,16.37
2019-05-01T23:25:26.352Z,15.88
2019-05-01T23:27:55.629Z,16.85
2019-05-01T23:30:24.744Z,17.52
2019-05-01T23:32:53.710Z,18.50
2019-05-01T23:35:22.783Z,19.77
2019-05-01T23:37:51.809Z,18.73
2019-05-01T23:40:20.851Z,19.00
2019-05-01T23:42:53.689Z,20.35
2019-05-01T23:45:20.635Z,20.88
2019-05-01T23:47:49.773Z,21.77
2019-05-01T23:50:19.117Z,21.42
2019-05-01T23:52:48.096Z,20.05
2019-05-01T23:55:17.207Z,20.65
2019-05-01T23:57:46.245Z,20.92
